sensor_id;sensor_type;location;lat;lon;timestamp;pressure;altitude;pressure_sealevel;temperature;humidity
79250;BME280;68679;51.030;7.584;2023-07-24T00:01:37;98090.00;;;17.67;65.65
79250;BME280;68679;51.030;7.584;2023-07-24T00:04:03;98083.19;;;17.66;65.45
79250;BME280;68679;51.030;7.584;2023-07-24T00:06:28;98077.09;;;17.65;66.25
79250;BME280;68679;51.030;7.584;2023-07-24T00:08:53;98074.88;;;17.67;66.09
79250;BME280;68679;51.030;7.584;2023-07-24T00:11:19;98071.00;;;17.65;65.82
79250;BME280;68679;51.030;7.584;2023-07-24T00:13:44;98064.50;;;17.62;66.27
79250;BME280;68679;51.030;7.584;2023-07-24T00:16:09;98065.63;;;17.61;66.25
79250;BME280;68679;51.030;7.584;2023-07-24T00:18:35;98065.63;;;17.61;66.14
79250;BME280;68679;51.030;7.584;2023-07-24T00:21:00;98063.31;;;17.60;66.24
79250;BME280;68679;51.030;7.584;2023-07-24T00:23:25;98061.09;;;17.62;65.88
79250;BME280;68679;51.030;7.584;2023-07-24T00:25:51;98063.31;;;17.60;65.92
79250;BME280;68679;51.030;7.584;2023-07-24T00:28:16;98057.56;;;17.58;65.89
79250;BME280;68679;51.030;7.584;2023-07-24T00:30:42;98063.22;;;17.56;66.41
79250;BME280;68679;51.030;7.584;2023-07-24T00:33:07;98056.81;;;17.57;65.64
79250;BME280;68679;51.030;7.584;2023-07-24T00:35:33;98047.75;;;17.58;65.27
79250;BME280;68679;51.030;7.584;2023-07-24T00:37:58;98054.16;;;17.57;65.74
79250;BME280;68679;51.030;7.584;2023-07-24T00:40:23;98054.94;;;17.58;65.23
79250;BME280;68679;51.030;7.584;2023-07-24T00:42:48;98054.94;;;17.58;65.10
79250;BME280;68679;51.030;7.584;2023-07-24T00:45:14;98055.63;;;17.55;66.07
79250;BME280;68679;51.030;7.584;2023-07-24T00:47:41;98042.38;;;17.55;65.85
79250;BME280;68679;51.030;7.584;2023-07-24T00:50:07;98047.97;;;17.53;66.44
79250;BME280;68679;51.030;7.584;2023-07-24T00:52:33;98038.94;;;17.54;65.53
79250;BME280;68679;51.030;7.584;2023-07-24T00:54:59;98036.28;;;17.54;65.91
79250;BME280;68679;51.030;7.584;2023-07-24T00:57:24;98045.78;;;17.55;66.09
79250;BME280;68679;51.030;7.584;2023-07-24T00:59:50;98043.78;;;17.52;65.91
79250;BME280;68679;51.030;7.584;2023-07-24T01:02:15;98047.56;;;17.51;66.14
79250;BME280;68679;51.030;7.584;2023-07-24T01:04:41;98047.91;;;17.50;65.58
79250;BME280;68679;51.030;7.584;2023-07-24T01:07:06;98041.06;;;17.49;65.83
79250;BME280;68679;51.030;7.584;2023-07-24T01:09:31;98047.50;;;17.48;65.54
79250;BME280;68679;51.030;7.584;2023-07-24T01:12:01;98044.84;;;17.48;65.84
79250;BME280;68679;51.030;7.584;2023-07-24T01:14:49;98034.56;;;17.46;64.99
79250;BME280;68679;51.030;7.584;2023-07-24T01:17:22;98031.25;;;17.49;65.55
79250;BME280;68679;51.030;7.584;2023-07-24T01:19:49;98029.34;;;17.50;66.06
79250;BME280;68679;51.030;7.584;2023-07-24T01:22:25;98021.00;;;17.48;66.15
79250;BME280;68679;51.030;7.584;2023-07-24T01:27:47;98022.06;;;17.47;66.35
79250;BME280;68679;51.030;7.584;2023-07-24T01:30:17;98016.78;;;17.47;65.94
79250;BME280;68679;51.030;7.584;2023-07-24T01:32:43;98006.09;;;17.43;65.78
79250;BME280;68679;51.030;7.584;2023-07-24T01:35:09;97993.25;;;17.45;66.75
79250;BME280;68679;51.030;7.584;2023-07-24T01:37:34;97989.94;;;17.48;65.72
79250;BME280;68679;51.030;7.584;2023-07-24T01:40:02;97997.44;;;17.46;66.50
79250;BME280;68679;51.030;7.584;2023-07-24T01:42:27;97995.91;;;17.45;66.40
79250;BME280;68679;51.030;7.584;2023-07-24T01:44:54;97997.03;;;17.44;66.89
79250;BME280;68679;51.030;7.584;2023-07-24T01:47:20;97994.38;;;17.44;65.91
79250;BME280;68679;51.030;7.584;2023-07-24T01:49:46;97983.44;;;17.46;66.80
79250;BME280;68679;51.030;7.584;2023-07-24T01:52:11;97980.38;;;17.43;66.91
79250;BME280;68679;51.030;7.584;2023-07-24T01:54:36;97982.25;;;17.43;66.57
79250;BME280;68679;51.030;7.584;2023-07-24T01:57:01;97973.53;;;17.42;66.85
79250;BME280;68679;51.030;7.584;2023-07-24T01:59:27;97978.06;;;17.42;66.75
79250;BME280;68679;51.030;7.584;2023-07-24T02:01:52;97972.00;;;17.41;66.23
79250;BME280;68679;51.030;7.584;2023-07-24T02:04:17;97971.19;;;17.41;65.80
79250;BME280;68679;51.030;7.584;2023-07-24T02:06:43;97968.53;;;17.41;67.04
79250;BME280;68679;51.030;7.584;2023-07-24T02:09:09;97965.91;;;17.41;66.01
79250;BME280;68679;51.030;7.584;2023-07-24T02:11:34;97962.06;;;17.38;66.23
79250;BME280;68679;51.030;7.584;2023-07-24T02:14:00;97963.53;;;17.36;66.25
79250;BME280;68679;51.030;7.584;2023-07-24T02:16:25;97964.97;;;17.33;65.52
79250;BME280;68679;51.030;7.584;2023-07-24T02:18:50;97952.47;;;17.34;66.00
79250;BME280;68679;51.030;7.584;2023-07-24T02:21:15;97953.69;;;17.36;65.90
79250;BME280;68679;51.030;7.584;2023-07-24T02:23:41;97958.53;;;17.34;65.73
79250;BME280;68679;51.030;7.584;2023-07-24T02:26:06;97951.72;;;17.33;65.89
79250;BME280;68679;51.030;7.584;2023-07-24T02:28:31;97957.00;;;17.33;66.54
79250;BME280;68679;51.030;7.584;2023-07-24T02:30:56;97954.38;;;17.33;66.46
79250;BME280;68679;51.030;7.584;2023-07-24T02:33:22;97955.06;;;17.30;66.71
79250;BME280;68679;51.030;7.584;2023-07-24T02:35:51;97961.47;;;17.29;66.68
79250;BME280;68679;51.030;7.584;2023-07-24T02:38:16;97958.03;;;17.29;65.31
79250;BME280;68679;51.030;7.584;2023-07-24T02:40:41;97956.94;;;17.30;66.23
79250;BME280;68679;51.030;7.584;2023-07-24T02:43:07;97950.88;;;17.29;66.21
79250;BME280;68679;51.030;7.584;2023-07-24T02:45:37;97953.19;;;17.31;65.50
79250;BME280;68679;51.030;7.584;2023-07-24T02:48:02;97948.28;;;17.33;65.81
79250;BME280;68679;51.030;7.584;2023-07-24T02:50:28;97953.25;;;17.34;65.67
79250;BME280;68679;51.030;7.584;2023-07-24T02:52:53;97949.41;;;17.32;66.59
79250;BME280;68679;51.030;7.584;2023-07-24T02:55:19;97934.19;;;17.29;66.48
79250;BME280;68679;51.030;7.584;2023-07-24T02:57:44;97939.47;;;17.29;67.02
79250;BME280;68679;51.030;7.584;2023-07-24T03:00:10;97936.06;;;17.28;66.47
79250;BME280;68679;51.030;7.584;2023-07-24T03:02:35;97953.19;;;17.31;66.47
79250;BME280;68679;51.030;7.584;2023-07-24T03:05:00;97937.94;;;17.28;65.46
79250;BME280;68679;51.030;7.584;2023-07-24T03:07:26;97917.19;;;17.30;66.33
79250;BME280;68679;51.030;7.584;2023-07-24T03:09:51;97919.50;;;17.31;66.09
79250;BME280;68679;51.030;7.584;2023-07-24T03:12:16;97912.66;;;17.30;67.10
79250;BME280;68679;51.030;7.584;2023-07-24T03:14:42;97912.97;;;17.29;67.08
79250;BME280;68679;51.030;7.584;2023-07-24T03:17:07;97917.88;;;17.27;66.56
79250;BME280;68679;51.030;7.584;2023-07-24T03:19:32;97916.34;;;17.26;65.79
79250;BME280;68679;51.030;7.584;2023-07-24T03:21:57;97898.56;;;17.26;65.98
79250;BME280;68679;51.030;7.584;2023-07-24T03:24:23;97906.09;;;17.24;66.41
79250;BME280;68679;51.030;7.584;2023-07-24T03:26:48;97892.84;;;17.24;66.28
79250;BME280;68679;51.030;7.584;2023-07-24T03:29:13;97888.97;;;17.22;66.31
79250;BME280;68679;51.030;7.584;2023-07-24T03:31:38;97877.59;;;17.21;66.55
79250;BME280;68679;51.030;7.584;2023-07-24T03:34:04;97869.66;;;17.21;67.40
79250;BME280;68679;51.030;7.584;2023-07-24T03:36:29;97870.00;;;17.20;66.53
79250;BME280;68679;51.030;7.584;2023-07-24T03:38:54;97854.47;;;17.18;67.21
79250;BME280;68679;51.030;7.584;2023-07-24T03:41:20;97861.19;;;17.15;66.16
79250;BME280;68679;51.030;7.584;2023-07-24T03:43:45;97855.50;;;17.13;66.05
79250;BME280;68679;51.030;7.584;2023-07-24T03:46:10;97855.41;;;17.10;65.84
79250;BME280;68679;51.030;7.584;2023-07-24T03:48:36;97847.38;;;17.06;65.56
79250;BME280;68679;51.030;7.584;2023-07-24T03:51:02;97850.69;;;17.03;65.31
79250;BME280;68679;51.030;7.584;2023-07-24T03:53:28;97849.94;;;17.03;66.05
79250;BME280;68679;51.030;7.584;2023-07-24T03:55:54;97847.22;;;16.99;65.88
79250;BME280;68679;51.030;7.584;2023-07-24T03:58:19;97852.75;;;16.94;66.11
79250;BME280;68679;51.030;7.584;2023-07-24T04:00:45;97840.63;;;16.93;66.07
79250;BME280;68679;51.030;7.584;2023-07-24T04:03:11;97841.72;;;16.92;65.50
79250;BME280;68679;51.030;7.584;2023-07-24T04:05:36;97836.44;;;16.92;65.52
79250;BME280;68679;51.030;7.584;2023-07-24T04:08:02;97843.59;;;16.92;66.09
79250;BME280;68679;51.030;7.584;2023-07-24T04:10:27;97849.59;;;16.88;65.50
79250;BME280;68679;51.030;7.584;2023-07-24T04:12:53;97854.13;;;16.88;66.15
79250;BME280;68679;51.030;7.584;2023-07-24T04:15:18;97852.91;;;16.85;65.29
79250;BME280;68679;51.030;7.584;2023-07-24T04:17:44;97854.38;;;16.83;65.69
79250;BME280;68679;51.030;7.584;2023-07-24T04:20:09;97856.59;;;16.81;65.29
79250;BME280;68679;51.030;7.584;2023-07-24T04:22:35;97849.75;;;16.80;64.98
79250;BME280;68679;51.030;7.584;2023-07-24T04:25:00;97841.81;;;16.80;65.31
79250;BME280;68679;51.030;7.584;2023-07-24T04:27:25;97835.41;;;16.81;65.63
79250;BME280;68679;51.030;7.584;2023-07-24T04:29:51;97832.44;;;16.82;65.58
79250;BME280;68679;51.030;7.584;2023-07-24T04:32:16;97830.88;;;16.81;65.11
79250;BME280;68679;51.030;7.584;2023-07-24T04:34:41;97834.63;;;16.80;65.47
79250;BME280;68679;51.030;7.584;2023-07-24T04:37:07;97838.72;;;16.78;65.57
79250;BME280;68679;51.030;7.584;2023-07-24T04:39:32;97842.09;;;16.75;65.31
79250;BME280;68679;51.030;7.584;2023-07-24T04:41:58;97845.91;;;16.77;65.74
79250;BME280;68679;51.030;7.584;2023-07-24T04:44:24;97847.44;;;16.78;64.94
79250;BME280;68679;51.030;7.584;2023-07-24T04:46:49;97847.09;;;16.80;65.38
79250;BME280;68679;51.030;7.584;2023-07-24T04:49:15;97857.38;;;16.81;65.74
79250;BME280;68679;51.030;7.584;2023-07-24T04:51:40;97852.50;;;16.83;65.88
79250;BME280;68679;51.030;7.584;2023-07-24T04:54:06;97859.31;;;16.84;65.73
79250;BME280;68679;51.030;7.584;2023-07-24T04:56:31;97861.63;;;16.86;65.71
79250;BME280;68679;51.030;7.584;2023-07-24T04:58:56;97855.25;;;16.87;65.98
79250;BME280;68679;51.030;7.584;2023-07-24T05:01:22;97852.31;;;16.92;65.96
79250;BME280;68679;51.030;7.584;2023-07-24T05:03:47;97858.72;;;16.91;66.12
79250;BME280;68679;51.030;7.584;2023-07-24T05:06:12;97859.19;;;16.93;66.10
79250;BME280;68679;51.030;7.584;2023-07-24T05:08:37;97860.00;;;16.97;66.14
79250;BME280;68679;51.030;7.584;2023-07-24T05:11:03;97869.59;;;17.02;66.11
79250;BME280;68679;51.030;7.584;2023-07-24T05:13:28;97860.53;;;17.03;65.55
79250;BME280;68679;51.030;7.584;2023-07-24T05:15:53;97861.75;;;17.05;65.72
79250;BME280;68679;51.030;7.584;2023-07-24T05:18:19;97867.56;;;17.11;67.22
79250;BME280;68679;51.030;7.584;2023-07-24T05:20:45;97869.16;;;17.15;66.17
79250;BME280;68679;51.030;7.584;2023-07-24T05:23:16;97875.66;;;17.18;66.93
79250;BME280;68679;51.030;7.584;2023-07-24T05:25:41;97876.06;;;17.20;67.88
79250;BME280;68679;51.030;7.584;2023-07-24T05:28:06;97874.63;;;17.23;67.71
79250;BME280;68679;51.030;7.584;2023-07-24T05:30:32;97869.00;;;17.24;67.32
79250;BME280;68679;51.030;7.584;2023-07-24T05:32:58;97870.88;;;17.24;67.62
79250;BME280;68679;51.030;7.584;2023-07-24T05:35:23;97865.28;;;17.29;68.24
79250;BME280;68679;51.030;7.584;2023-07-24T05:37:48;97864.63;;;17.32;66.43
79250;BME280;68679;51.030;7.584;2023-07-24T05:40:13;97864.72;;;17.35;66.85
79250;BME280;68679;51.030;7.584;2023-07-24T05:42:39;97870.06;;;17.39;67.48
79250;BME280;68679;51.030;7.584;2023-07-24T05:45:08;97875.47;;;17.42;65.72
79250;BME280;68679;51.030;7.584;2023-07-24T05:47:34;97881.94;;;17.45;64.64
79250;BME280;68679;51.030;7.584;2023-07-24T05:49:59;97882.03;;;17.49;67.98
79250;BME280;68679;51.030;7.584;2023-07-24T05:52:24;97875.63;;;17.50;64.86
79250;BME280;68679;51.030;7.584;2023-07-24T05:54:49;97877.56;;;17.53;63.60
79250;BME280;68679;51.030;7.584;2023-07-24T05:57:15;97876.91;;;17.56;64.06
79250;BME280;68679;51.030;7.584;2023-07-24T05:59:40;97880.72;;;17.58;63.54
79250;BME280;68679;51.030;7.584;2023-07-24T06:02:05;97881.19;;;17.60;62.97
79250;BME280;68679;51.030;7.584;2023-07-24T06:04:32;97881.22;;;17.64;63.43
79250;BME280;68679;51.030;7.584;2023-07-24T06:06:57;97888.88;;;17.65;62.84
79250;BME280;68679;51.030;7.584;2023-07-24T06:09:23;97889.28;;;17.67;62.54
79250;BME280;68679;51.030;7.584;2023-07-24T06:11:48;97891.59;;;17.69;62.12
79250;BME280;68679;51.030;7.584;2023-07-24T06:14:13;97890.16;;;17.72;61.47
79250;BME280;68679;51.030;7.584;2023-07-24T06:16:38;97876.56;;;17.73;60.49
79250;BME280;68679;51.030;7.584;2023-07-24T06:19:04;97894.41;;;17.76;59.96
79250;BME280;68679;51.030;7.584;2023-07-24T06:21:30;97892.97;;;17.79;59.34
79250;BME280;68679;51.030;7.584;2023-07-24T06:23:55;97889.97;;;17.80;60.49
79250;BME280;68679;51.030;7.584;2023-07-24T06:26:21;97885.84;;;17.83;59.58
79250;BME280;68679;51.030;7.584;2023-07-24T06:28:46;97901.84;;;17.86;59.54
79250;BME280;68679;51.030;7.584;2023-07-24T06:31:12;97898.84;;;17.88;59.49
79250;BME280;68679;51.030;7.584;2023-07-24T06:33:37;97903.47;;;17.91;59.15
79250;BME280;68679;51.030;7.584;2023-07-24T06:36:02;97906.53;;;17.93;59.76
79250;BME280;68679;51.030;7.584;2023-07-24T06:38:28;97898.97;;;17.95;59.45
79250;BME280;68679;51.030;7.584;2023-07-24T06:40:53;97898.66;;;17.97;59.12
79250;BME280;68679;51.030;7.584;2023-07-24T06:43:18;97899.84;;;17.99;58.77
79250;BME280;68679;51.030;7.584;2023-07-24T06:45:44;97899.47;;;18.01;59.56
79250;BME280;68679;51.030;7.584;2023-07-24T06:48:09;97896.16;;;18.04;58.48
79250;BME280;68679;51.030;7.584;2023-07-24T06:50:34;97895.44;;;18.07;58.82
79250;BME280;68679;51.030;7.584;2023-07-24T06:52:59;97880.72;;;18.09;59.10
79250;BME280;68679;51.030;7.584;2023-07-24T06:55:25;97887.22;;;18.12;58.17
79250;BME280;68679;51.030;7.584;2023-07-24T06:57:50;97886.16;;;18.16;58.82
79250;BME280;68679;51.030;7.584;2023-07-24T07:00:15;97880.91;;;18.20;58.50
79250;BME280;68679;51.030;7.584;2023-07-24T07:02:41;97877.97;;;18.25;58.02
79250;BME280;68679;51.030;7.584;2023-07-24T07:05:06;97883.00;;;18.30;60.50
79250;BME280;68679;51.030;7.584;2023-07-24T07:07:31;97873.16;;;18.31;58.90
79250;BME280;68679;51.030;7.584;2023-07-24T07:09:57;97877.78;;;18.34;58.35
79250;BME280;68679;51.030;7.584;2023-07-24T07:12:22;97884.63;;;18.35;58.00
79250;BME280;68679;51.030;7.584;2023-07-24T07:14:47;97885.47;;;18.39;57.38
79250;BME280;68679;51.030;7.584;2023-07-24T07:17:13;97877.91;;;18.41;59.07
79250;BME280;68679;51.030;7.584;2023-07-24T07:19:38;97876.75;;;18.38;57.54
79250;BME280;68679;51.030;7.584;2023-07-24T07:22:04;97873.28;;;18.38;58.12
79250;BME280;68679;51.030;7.584;2023-07-24T07:24:29;97865.34;;;18.38;58.12
79250;BME280;68679;51.030;7.584;2023-07-24T07:26:54;97870.31;;;18.39;58.25
79250;BME280;68679;51.030;7.584;2023-07-24T07:29:19;97875.63;;;18.39;57.91
79250;BME280;68679;51.030;7.584;2023-07-24T07:31:45;97879.03;;;18.40;57.05
79250;BME280;68679;51.030;7.584;2023-07-24T07:34:10;97876.03;;;18.41;57.54
79250;BME280;68679;51.030;7.584;2023-07-24T07:36:35;97877.22;;;18.44;57.49
79250;BME280;68679;51.030;7.584;2023-07-24T07:39:01;97875.34;;;18.44;57.64
79250;BME280;68679;51.030;7.584;2023-07-24T07:41:27;97877.28;;;18.47;57.83
79250;BME280;68679;51.030;7.584;2023-07-24T07:43:53;97872.75;;;18.48;58.12
79250;BME280;68679;51.030;7.584;2023-07-24T07:46:18;97872.47;;;18.53;57.81
79250;BME280;68679;51.030;7.584;2023-07-24T07:48:44;97869.09;;;18.56;57.02
79250;BME280;68679;51.030;7.584;2023-07-24T07:51:11;97869.16;;;18.60;56.72
79250;BME280;68679;51.030;7.584;2023-07-24T07:53:36;97862.03;;;18.64;56.46
79250;BME280;68679;51.030;7.584;2023-07-24T07:56:02;97868.94;;;18.68;57.60
79250;BME280;68679;51.030;7.584;2023-07-24T07:58:27;97859.53;;;18.71;56.90
79250;BME280;68679;51.030;7.584;2023-07-24T08:00:52;97852.41;;;18.75;57.05
79250;BME280;68679;51.030;7.584;2023-07-24T08:03:18;97848.63;;;18.76;56.93
79250;BME280;68679;51.030;7.584;2023-07-24T08:05:43;97846.00;;;18.80;57.05
79250;BME280;68679;51.030;7.584;2023-07-24T08:08:08;97840.00;;;18.83;55.75
79250;BME280;68679;51.030;7.584;2023-07-24T08:10:37;97851.03;;;18.85;56.76
79250;BME280;68679;51.030;7.584;2023-07-24T08:13:02;97846.91;;;18.87;56.75
79250;BME280;68679;51.030;7.584;2023-07-24T08:15:27;97835.94;;;18.89;56.66
79250;BME280;68679;51.030;7.584;2023-07-24T08:17:56;97837.09;;;18.91;55.87
79250;BME280;68679;51.030;7.584;2023-07-24T08:20:21;97851.22;;;18.95;56.48
79250;BME280;68679;51.030;7.584;2023-07-24T08:22:46;97844.00;;;18.96;55.99
79250;BME280;68679;51.030;7.584;2023-07-24T08:25:11;97847.44;;;18.96;55.89
79250;BME280;68679;51.030;7.584;2023-07-24T08:27:37;97849.41;;;18.99;55.81
79250;BME280;68679;51.030;7.584;2023-07-24T08:30:02;97847.63;;;19.07;55.36
79250;BME280;68679;51.030;7.584;2023-07-24T08:32:27;97834.38;;;19.11;55.27
79250;BME280;68679;51.030;7.584;2023-07-24T08:34:53;97832.94;;;19.17;56.97
79250;BME280;68679;51.030;7.584;2023-07-24T08:37:18;97839.47;;;19.23;56.50
79250;BME280;68679;51.030;7.584;2023-07-24T08:39:43;97846.47;;;19.31;55.43
79250;BME280;68679;51.030;7.584;2023-07-24T08:42:12;97843.16;;;19.41;55.19
79250;BME280;68679;51.030;7.584;2023-07-24T08:44:38;97854.03;;;19.55;55.47
79250;BME280;68679;51.030;7.584;2023-07-24T08:47:04;97841.97;;;19.62;55.22
79250;BME280;68679;51.030;7.584;2023-07-24T08:49:30;97836.75;;;19.69;55.05
79250;BME280;68679;51.030;7.584;2023-07-24T08:51:56;97829.22;;;19.74;55.17
79250;BME280;68679;51.030;7.584;2023-07-24T08:54:23;97839.19;;;19.81;55.26
79250;BME280;68679;51.030;7.584;2023-07-24T08:56:50;97833.56;;;19.86;55.61
79250;BME280;68679;51.030;7.584;2023-07-24T08:59:16;97834.72;;;19.89;54.35
79250;BME280;68679;51.030;7.584;2023-07-24T09:01:43;97814.97;;;19.90;55.06
79250;BME280;68679;51.030;7.584;2023-07-24T09:04:08;97820.69;;;19.92;54.62
79250;BME280;68679;51.030;7.584;2023-07-24T09:06:33;97801.00;;;19.96;54.41
79250;BME280;68679;51.030;7.584;2023-07-24T09:08:59;97802.59;;;20.04;53.75
79250;BME280;68679;51.030;7.584;2023-07-24T09:11:24;97802.28;;;20.09;54.66
79250;BME280;68679;51.030;7.584;2023-07-24T09:13:50;97795.84;;;20.14;54.44
79250;BME280;68679;51.030;7.584;2023-07-24T09:16:25;97792.53;;;20.24;53.81
79250;BME280;68679;51.030;7.584;2023-07-24T09:18:52;97788.78;;;20.29;54.56
79250;BME280;68679;51.030;7.584;2023-07-24T09:21:31;97801.00;;;20.33;54.11
79250;BME280;68679;51.030;7.584;2023-07-24T09:23:57;97806.72;;;20.35;53.85
79250;BME280;68679;51.030;7.584;2023-07-24T09:26:23;97806.03;;;20.42;53.19
79250;BME280;68679;51.030;7.584;2023-07-24T09:28:53;97799.22;;;20.45;54.38
79250;BME280;68679;51.030;7.584;2023-07-24T09:31:18;97808.78;;;20.49;54.08
79250;BME280;68679;51.030;7.584;2023-07-24T09:33:44;97815.72;;;20.57;55.10
79250;BME280;68679;51.030;7.584;2023-07-24T09:36:09;97803.19;;;20.61;54.05
79250;BME280;68679;51.030;7.584;2023-07-24T09:38:40;97803.63;;;20.67;53.92
79250;BME280;68679;51.030;7.584;2023-07-24T09:41:06;97785.34;;;20.66;53.13
79250;BME280;68679;51.030;7.584;2023-07-24T09:43:32;97784.59;;;20.69;54.23
79250;BME280;68679;51.030;7.584;2023-07-24T09:45:58;97785.75;;;20.68;54.19
79250;BME280;68679;51.030;7.584;2023-07-24T09:48:25;97781.59;;;20.70;52.99
79250;BME280;68679;51.030;7.584;2023-07-24T09:50:56;97775.13;;;20.75;54.58
79250;BME280;68679;51.030;7.584;2023-07-24T09:53:37;97772.56;;;20.82;54.17
79250;BME280;68679;51.030;7.584;2023-07-24T09:56:05;97764.56;;;20.85;54.09
79250;BME280;68679;51.030;7.584;2023-07-24T09:58:37;97755.84;;;20.88;55.00
79250;BME280;68679;51.030;7.584;2023-07-24T10:01:03;97744.09;;;20.93;54.60
79250;BME280;68679;51.030;7.584;2023-07-24T10:03:32;97753.25;;;20.99;54.28
79250;BME280;68679;51.030;7.584;2023-07-24T10:05:59;97747.94;;;21.03;53.93
79250;BME280;68679;51.030;7.584;2023-07-24T10:08:25;97748.75;;;21.10;53.77
79250;BME280;68679;51.030;7.584;2023-07-24T10:10:51;97743.06;;;21.15;53.96
79250;BME280;68679;51.030;7.584;2023-07-24T10:13:19;97748.81;;;21.18;54.13
79250;BME280;68679;51.030;7.584;2023-07-24T10:15:46;97748.44;;;21.19;53.78
79250;BME280;68679;51.030;7.584;2023-07-24T10:18:12;97747.66;;;21.19;53.39
79250;BME280;68679;51.030;7.584;2023-07-24T10:20:41;97744.63;;;21.20;53.47
79250;BME280;68679;51.030;7.584;2023-07-24T10:23:09;97749.97;;;21.27;53.78
79250;BME280;68679;51.030;7.584;2023-07-24T10:25:37;97749.97;;;21.27;54.35
79250;BME280;68679;51.030;7.584;2023-07-24T10:28:07;97764.13;;;21.31;52.47
79250;BME280;68679;51.030;7.584;2023-07-24T10:30:39;97755.38;;;21.31;53.67
79250;BME280;68679;51.030;7.584;2023-07-24T10:35:43;97753.84;;;21.33;53.80
79250;BME280;68679;51.030;7.584;2023-07-24T10:38:11;97751.56;;;21.32;54.49
79250;BME280;68679;51.030;7.584;2023-07-24T10:40:36;97758.44;;;21.33;54.96
79250;BME280;68679;51.030;7.584;2023-07-24T10:43:10;97761.47;;;21.35;54.31
79250;BME280;68679;51.030;7.584;2023-07-24T10:45:39;97756.91;;;21.35;54.83
79250;BME280;68679;51.030;7.584;2023-07-24T10:48:05;97752.72;;;21.31;55.04
79250;BME280;68679;51.030;7.584;2023-07-24T10:50:56;97754.25;;;21.35;54.79
79250;BME280;68679;51.030;7.584;2023-07-24T10:53:22;97737.47;;;21.35;55.06
79250;BME280;68679;51.030;7.584;2023-07-24T10:55:48;97740.56;;;21.37;54.85
79250;BME280;68679;51.030;7.584;2023-07-24T10:58:15;97727.59;;;21.39;54.88
79250;BME280;68679;51.030;7.584;2023-07-24T11:00:44;97730.28;;;21.42;54.38
79250;BME280;68679;51.030;7.584;2023-07-24T11:03:11;97739.09;;;21.50;55.44
79250;BME280;68679;51.030;7.584;2023-07-24T11:05:44;97734.16;;;21.56;54.80
79250;BME280;68679;51.030;7.584;2023-07-24T11:08:11;97728.47;;;21.68;54.72
79250;BME280;68679;51.030;7.584;2023-07-24T11:10:44;97722.03;;;21.73;55.42
79250;BME280;68679;51.030;7.584;2023-07-24T11:13:10;97723.94;;;21.79;54.72
79250;BME280;68679;51.030;7.584;2023-07-24T11:15:35;97726.63;;;21.83;54.41
79250;BME280;68679;51.030;7.584;2023-07-24T11:18:00;97721.69;;;21.92;53.31
79250;BME280;68679;51.030;7.584;2023-07-24T11:20:27;97715.19;;;21.89;53.85
79250;BME280;68679;51.030;7.584;2023-07-24T11:22:52;97715.22;;;21.93;54.64
79250;BME280;68679;51.030;7.584;2023-07-24T11:25:18;97701.88;;;21.97;53.78
79250;BME280;68679;51.030;7.584;2023-07-24T11:27:43;97698.81;;;22.02;54.41
79250;BME280;68679;51.030;7.584;2023-07-24T11:30:11;97687.41;;;22.05;54.15
79250;BME280;68679;51.030;7.584;2023-07-24T11:32:40;97683.22;;;22.11;54.43
79250;BME280;68679;51.030;7.584;2023-07-24T11:35:06;97673.31;;;22.11;54.46
79250;BME280;68679;51.030;7.584;2023-07-24T11:37:33;97666.81;;;22.19;54.50
79250;BME280;68679;51.030;7.584;2023-07-24T11:40:00;97659.97;;;22.18;54.46
79250;BME280;68679;51.030;7.584;2023-07-24T11:42:38;97657.69;;;22.24;54.44
79250;BME280;68679;51.030;7.584;2023-07-24T11:45:05;97657.31;;;22.29;54.67
79250;BME280;68679;51.030;7.584;2023-07-24T11:47:30;97650.81;;;22.34;54.24
79250;BME280;68679;51.030;7.584;2023-07-24T11:49:57;97642.78;;;22.48;54.21
79250;BME280;68679;51.030;7.584;2023-07-24T11:52:22;97627.13;;;22.54;53.45
79250;BME280;68679;51.030;7.584;2023-07-24T11:54:56;97616.81;;;22.59;54.41
79250;BME280;68679;51.030;7.584;2023-07-24T11:57:25;97607.66;;;22.64;54.15
79250;BME280;68679;51.030;7.584;2023-07-24T11:59:51;97611.84;;;22.65;53.61
79250;BME280;68679;51.030;7.584;2023-07-24T12:02:18;97610.69;;;22.69;54.09
79250;BME280;68679;51.030;7.584;2023-07-24T12:04:44;97611.06;;;22.71;54.10
79250;BME280;68679;51.030;7.584;2023-07-24T12:07:09;97608.75;;;22.73;53.74
79250;BME280;68679;51.030;7.584;2023-07-24T12:09:35;97599.22;;;22.69;54.58
79250;BME280;68679;51.030;7.584;2023-07-24T12:12:03;97590.44;;;22.68;54.85
79250;BME280;68679;51.030;7.584;2023-07-24T12:14:28;97580.91;;;22.67;55.22
79250;BME280;68679;51.030;7.584;2023-07-24T12:17:03;97565.25;;;22.66;54.71
79250;BME280;68679;51.030;7.584;2023-07-24T12:19:28;97545.81;;;22.65;53.75
79250;BME280;68679;51.030;7.584;2023-07-24T12:21:54;97565.63;;;22.68;54.60
79250;BME280;68679;51.030;7.584;2023-07-24T12:24:19;97538.91;;;22.68;54.03
79250;BME280;68679;51.030;7.584;2023-07-24T12:26:44;97607.22;;;22.69;54.27
79250;BME280;68679;51.030;7.584;2023-07-24T12:29:10;97660.34;;;22.60;53.54
79250;BME280;68679;51.030;7.584;2023-07-24T12:31:35;97642.00;;;22.55;52.46
79250;BME280;68679;51.030;7.584;2023-07-24T12:34:00;97689.72;;;22.31;54.29
79250;BME280;68679;51.030;7.584;2023-07-24T12:36:26;97701.56;;;22.30;53.78
79250;BME280;68679;51.030;7.584;2023-07-24T12:38:51;97685.13;;;22.14;54.81
79250;BME280;68679;51.030;7.584;2023-07-24T12:41:17;97699.22;;;22.04;55.37
79250;BME280;68679;51.030;7.584;2023-07-24T12:43:43;97731.94;;;21.83;55.79
79250;BME280;68679;51.030;7.584;2023-07-24T12:46:08;97724.63;;;21.58;55.17
79250;BME280;68679;51.030;7.584;2023-07-24T12:48:34;97714.53;;;21.20;56.92
79250;BME280;68679;51.030;7.584;2023-07-24T12:51:01;97722.81;;;21.04;56.54
79250;BME280;68679;51.030;7.584;2023-07-24T12:53:26;97720.53;;;21.02;57.98
79250;BME280;68679;51.030;7.584;2023-07-24T12:55:51;97730.25;;;20.80;57.71
79250;BME280;68679;51.030;7.584;2023-07-24T12:58:17;97731.06;;;20.84;56.66
79250;BME280;68679;51.030;7.584;2023-07-24T13:00:42;97721.94;;;20.82;58.20